Aeroporto :
LOGIN :

Iscrizione | Disclaimer

   EN    FR    IT 

 










Sommario :    VFR   VFR Marginale   IFR   IFR Intensivo   IFR Molto Intensivo
Visibilità : 
Base nubi : 
>= 8 km
>= 3000ft
5 / 8 km
1000 / 3000 ft
1500m / 5 km
500 / 1000 ft
800 / 1500m
200 / 500 ft
< 800m
< 200 ft
Simboli :   Temporali  Nebbia  Neve Forte  Precipitazioni Forti  Vento > 20 kt
SIGMETs :   Varie  Temporali  Ghiacco  Turbolenza  Onda orograficha  Ceneri Vulcaniche







- Altitudine del aeroporto : 410 ft
- Codice IATA : AVB


LIPA - Aviano AB Pordenone

ULTIMO METAR :
  • 241255Z 07008KT 9999 TS FEW040CB SCT070 29/22 Q1018 RMK BKN VIS MIN 9999 WIND THR05 /////KT WIND THR23 /////KT A3006 BLU

METARs OBSOLETI :
  • 241155Z 09009KT 9999 FEW040CB SCT090 28/20 Q1018 RMK SCT VIS MIN 9999 WIND THR05 /////KT WIND THR23 /////KT A3008 BLU
  • 241055Z 05007KT 9999 FEW050 SCT090 29/19 Q1018 RMK SCT VIS MIN 9999 WIND THR05 /////KT WIND THR23 /////KT A3009 BLU

TAF TAF LIPA
Valido dal 24 a 12 ore il 24 a 21 ore UTC


241100Z 2412/2421 01005KT 9999 FEW050 SCT090
PROB40
TEMPO 2412/2418 5000 TSRA FEW020CB SCT040
Nessun NOTAM noto per questo aeroporto.



MetMap, La meteo Aeronautica in un colpo d'occhio ! - Copyright ORBIFLY Dicembre 2007 - Disclaimer

ORBIFLY MET'MAP TEAM :

Programmazione e sviluppo : Alexandra Zaïnal
Concezione e sviluppo : Baudouin d'Aumeries
Co-Programmazione e sviluppo : Marc-Olivier Méhu
Supporto tecnico e logistico : Manuel Goepfert
Aiuto per la traduzione : Arnaldo La Scala

Contatto : metmap@orbifly.com




FONTI E CREDITI :

   NOAA